Terminal Aerodrome Forecast
Issued by NWS

Home | Current Version | Previous Version | Text Only | Print | Product List | Glossary On
Versions: 1 2 3 4 5 6 7 8 9 10 11 12 13 14
000
FTUS43 KPAH 130500
TAFCGI
TAF
KCGI 130520Z 1306/1406 20005KT P6SM BKN250
     FM131500 23012KT P6SM SCT100
     FM140300 21005KT 5SM -SHRA BKN050=

USA.gov is the U.S. government's official web portal to all federal, state and local government web resources and services.